createdAt,value
2022-10-05T00:00:23.405Z,99426.59
2022-10-05T00:02:52.446Z,99432.69
2022-10-05T00:05:32.823Z,99441.56
2022-10-05T00:08:18.834Z,99447.84
2022-10-05T00:10:46.562Z,99441.91
2022-10-05T00:13:21.225Z,99444.78
2022-10-05T00:15:49.439Z,99442.22
2022-10-05T00:18:21.387Z,99434.34
2022-10-05T00:20:48.955Z,99430.84
2022-10-05T00:23:25.132Z,99432.66
2022-10-05T00:25:52.066Z,99432.69
2022-10-05T00:28:27.796Z,99439.81
2022-10-05T00:30:59.163Z,99430.38
2022-10-05T00:33:27.353Z,99430.59
2022-10-05T00:35:55.074Z,99428.94
2022-10-05T00:38:21.961Z,99430.84
2022-10-05T00:41:01.311Z,99423.06
2022-10-05T00:43:40.505Z,99417.69
2022-10-05T00:46:49.609Z,99400.84
2022-10-05T00:49:28.316Z,99386.63
2022-10-05T00:52:27.094Z,99389.97
2022-10-05T00:55:18.756Z,99394.22
2022-10-05T00:58:35.341Z,99400.53
2022-10-05T01:01:02.013Z,99404.31
2022-10-05T01:03:37.853Z,99402.66
2022-10-05T01:06:23.867Z,99404.50
2022-10-05T01:08:58.562Z,99401.88
2022-10-05T01:11:29.976Z,99407.16
2022-10-05T01:14:15.097Z,99399.44
2022-10-05T01:16:58.953Z,99400.34
2022-10-05T01:20:06.951Z,99402.22
2022-10-05T01:22:52.438Z,99406.69
2022-10-05T01:25:37.233Z,99414.81
2022-10-05T01:28:11.101Z,99407.94
2022-10-05T01:30:54.776Z,99407.97
2022-10-05T01:33:29.367Z,99404.56
2022-10-05T01:36:04.408Z,99399.38
2022-10-05T01:38:50.938Z,99398.63
2022-10-05T01:41:41.209Z,99403.31
2022-10-05T01:44:31.071Z,99403.44
2022-10-05T01:47:21.529Z,99416.78
2022-10-05T01:50:04.639Z,99421.31
2022-10-05T01:52:32.141Z,99416.03
2022-10-05T01:55:04.779Z,99416.03
2022-10-05T01:57:37.443Z,99416.06
2022-10-05T02:00:13.899Z,99407.44
2022-10-05T02:03:22.393Z,99404.63
2022-10-05T02:05:56.406Z,99412.47
2022-10-05T02:08:41.008Z,99404.69
2022-10-05T02:11:10.978Z,99416.25
2022-10-05T02:13:47.469Z,99397.16
2022-10-05T02:16:39.312Z,99402.41
2022-10-05T02:19:30.728Z,99398.00
2022-10-05T02:22:09.080Z,99390.09
2022-10-05T02:24:43.563Z,99390.13
2022-10-05T02:27:13.244Z,99401.47
2022-10-05T02:29:45.780Z,99398.94
2022-10-05T02:32:25.285Z,99399.03
2022-10-05T02:34:52.878Z,99393.69
2022-10-05T02:37:34.810Z,99400.00
2022-10-05T02:40:13.322Z,99399.88
2022-10-05T02:43:03.561Z,99397.28
2022-10-05T02:46:07.574Z,99394.72
2022-10-05T02:49:02.558Z,99392.22
2022-10-05T02:51:46.049Z,99390.66
2022-10-05T02:54:29.909Z,99390.75
2022-10-05T02:57:04.237Z,99386.66
2022-10-05T02:59:47.913Z,99396.31
2022-10-05T03:02:24.627Z,99384.22
2022-10-05T03:04:57.653Z,99379.06
2022-10-05T03:07:34.001Z,99374.66
2022-10-05T03:10:14.778Z,99370.28
2022-10-05T03:12:45.468Z,99365.91
2022-10-05T03:15:40.622Z,99361.44
2022-10-05T03:18:57.424Z,99357.09
2022-10-05T03:21:52.191Z,99363.31
2022-10-05T03:24:38.336Z,99359.78
2022-10-05T03:27:24.560Z,99353.69
2022-10-05T03:30:19.799Z,99351.97
2022-10-05T03:33:22.350Z,99360.88
2022-10-05T03:36:01.177Z,99364.47
2022-10-05T03:38:33.980Z,99359.28
2022-10-05T03:41:20.957Z,99354.13
2022-10-05T03:44:17.707Z,99353.31
2022-10-05T03:46:57.805Z,99351.56
2022-10-05T03:50:06.220Z,99344.59
2022-10-05T03:52:45.456Z,99333.19
2022-10-05T03:55:21.876Z,99328.84
2022-10-05T03:57:52.262Z,99334.13
2022-10-05T04:00:25.927Z,99337.56
2022-10-05T04:03:15.976Z,99340.38
2022-10-05T04:05:50.594Z,99349.31
2022-10-05T04:08:26.936Z,99340.78
2022-10-05T04:10:57.989Z,99354.81
2022-10-05T04:13:37.472Z,99352.22
2022-10-05T04:16:19.284Z,99343.38
2022-10-05T04:19:18.219Z,99347.63
2022-10-05T04:21:52.319Z,99337.16
2022-10-05T04:24:32.072Z,99351.91
2022-10-05T04:27:03.287Z,99358.13
2022-10-05T04:29:46.764Z,99363.53
2022-10-05T04:32:42.441Z,99355.78
2022-10-05T04:35:23.325Z,99361.09
2022-10-05T04:38:08.235Z,99363.81
2022-10-05T04:41:09.266Z,99361.34
2022-10-05T04:43:57.248Z,99365.75
2022-10-05T04:46:43.300Z,99354.44
2022-10-05T04:49:11.409Z,99348.28
2022-10-05T04:51:41.397Z,99345.69
2022-10-05T04:54:15.886Z,99352.59
2022-10-05T04:56:49.550Z,99354.44
2022-10-05T04:59:47.632Z,99355.00
2022-10-05T05:02:26.223Z,99353.91
2022-10-05T05:05:05.986Z,99349.63
2022-10-05T05:07:48.028Z,99347.00
2022-10-05T05:10:24.000Z,99350.44
2022-10-05T05:13:11.507Z,99354.75
2022-10-05T05:15:38.985Z,99352.00
2022-10-05T05:18:15.272Z,99358.00
2022-10-05T05:20:55.217Z,99356.03
2022-10-05T05:24:01.209Z,99356.78
2022-10-05T05:26:54.136Z,99361.13
2022-10-05T05:29:42.678Z,99364.63
2022-10-05T05:32:17.522Z,99370.59
2022-10-05T05:34:47.377Z,99366.13
2022-10-05T05:37:41.765Z,99370.25
2022-10-05T05:40:27.651Z,99364.78
2022-10-05T05:43:16.930Z,99371.53
2022-10-05T05:45:47.014Z,99371.31
2022-10-05T05:48:29.209Z,99371.13
2022-10-05T05:51:34.623Z,99369.03
2022-10-05T05:54:29.660Z,99366.16
2022-10-05T05:57:10.887Z,99378.03
2022-10-05T05:59:53.209Z,99376.84
2022-10-05T06:02:28.467Z,99382.59
2022-10-05T06:05:26.377Z,99375.56
2022-10-05T06:07:56.039Z,99372.63
2022-10-05T06:10:59.421Z,99381.22
2022-10-05T06:13:34.365Z,99377.44
2022-10-05T06:16:22.083Z,99379.69
2022-10-05T06:19:04.009Z,99384.41
2022-10-05T06:21:40.074Z,99391.25
2022-10-05T06:24:17.137Z,99383.66
2022-10-05T06:27:02.552Z,99377.91
2022-10-05T06:29:43.998Z,99383.34
2022-10-05T06:32:29.296Z,99376.41
2022-10-05T06:35:14.581Z,99385.09
2022-10-05T06:38:02.796Z,99383.59
2022-10-05T06:40:46.080Z,99399.78
2022-10-05T06:43:36.398Z,99395.66
2022-10-05T06:46:32.435Z,99413.41
2022-10-05T06:49:31.264Z,99428.38
2022-10-05T06:52:46.778Z,99416.31
2022-10-05T06:55:23.423Z,99411.94
2022-10-05T06:58:09.607Z,99422.19
2022-10-05T07:00:40.924Z,99482.47
2022-10-05T07:03:40.832Z,99491.09
2022-10-05T07:06:16.966Z,99476.41
2022-10-05T07:09:16.715Z,99483.22
2022-10-05T07:11:49.154Z,99488.75
2022-10-05T07:14:36.125Z,99506.41
2022-10-05T07:17:45.663Z,99508.31
2022-10-05T07:20:49.227Z,99513.88
2022-10-05T07:23:38.994Z,99519.56
2022-10-05T07:26:09.478Z,99526.44
2022-10-05T07:28:39.226Z,99528.63
2022-10-05T07:31:19.240Z,99525.50
2022-10-05T07:34:15.462Z,99530.09
2022-10-05T07:37:24.316Z,99520.75
2022-10-05T07:40:01.173Z,99524.31
2022-10-05T07:42:50.493Z,99522.72
2022-10-05T07:45:28.245Z,99528.78
2022-10-05T07:47:59.488Z,99519.53
2022-10-05T07:50:30.193Z,99525.56
2022-10-05T07:53:13.212Z,99520.22
2022-10-05T07:56:16.008Z,99524.44
2022-10-05T07:58:51.746Z,99524.50
2022-10-05T08:01:25.128Z,99526.81
2022-10-05T08:04:01.771Z,99532.56
2022-10-05T08:06:32.117Z,99527.53
2022-10-05T08:09:07.246Z,99519.88
2022-10-05T08:12:02.300Z,99514.56
2022-10-05T08:14:39.305Z,99513.22
2022-10-05T08:17:28.137Z,99515.81
2022-10-05T08:20:22.071Z,99522.09
2022-10-05T08:22:58.629Z,99522.91
2022-10-05T08:25:35.553Z,99530.19
2022-10-05T08:28:15.794Z,99535.28
2022-10-05T08:31:09.583Z,99533.28
2022-10-05T08:34:17.199Z,99537.75
2022-10-05T08:37:00.557Z,99522.81
2022-10-05T08:39:37.252Z,99524.00
2022-10-05T08:42:32.738Z,99519.50
2022-10-05T08:45:14.240Z,99511.84
2022-10-05T08:48:02.261Z,99492.94
2022-10-05T08:51:02.332Z,99499.38
2022-10-05T08:53:32.136Z,99492.50
2022-10-05T08:56:09.246Z,99503.91
2022-10-05T08:58:44.629Z,99505.94
2022-10-05T09:01:49.818Z,99510.25
2022-10-05T09:04:31.191Z,99502.38
2022-10-05T09:07:06.762Z,99508.44
2022-10-05T09:10:03.731Z,99496.06
2022-10-05T09:12:36.880Z,99503.16
2022-10-05T09:15:44.778Z,99493.66
2022-10-05T09:18:29.696Z,99501.03
2022-10-05T09:21:08.976Z,99498.81
2022-10-05T09:23:44.477Z,99504.78
2022-10-05T09:26:32.575Z,99505.00
2022-10-05T09:29:18.501Z,99499.53
2022-10-05T09:32:33.967Z,99506.47
2022-10-05T09:35:19.038Z,99508.59
2022-10-05T09:38:13.051Z,99497.41
2022-10-05T09:41:04.679Z,99497.22
2022-10-05T09:43:46.439Z,99499.13
2022-10-05T09:46:53.666Z,99494.44
2022-10-05T09:49:55.861Z,99487.16
2022-10-05T09:53:00.113Z,99489.25
2022-10-05T09:55:35.895Z,99490.41
2022-10-05T09:58:12.840Z,99487.28
2022-10-05T10:01:09.290Z,99487.22
2022-10-05T10:04:13.730Z,99479.44
2022-10-05T10:06:56.746Z,99477.72
2022-10-05T10:09:42.895Z,99476.25
2022-10-05T10:12:49.113Z,99465.75
2022-10-05T10:15:52.869Z,99475.84
2022-10-05T10:18:19.978Z,99472.06
2022-10-05T10:21:11.571Z,99475.50
2022-10-05T10:24:11.540Z,99470.78
2022-10-05T10:27:16.948Z,99464.19
2022-10-05T10:29:58.689Z,99464.28
2022-10-05T10:33:40.026Z,99468.69
2022-10-05T10:36:33.848Z,99461.97
2022-10-05T10:39:10.199Z,99472.47
2022-10-05T10:42:03.032Z,99467.84
2022-10-05T10:44:58.851Z,99463.22
2022-10-05T10:47:50.541Z,99455.81
2022-10-05T10:51:11.085Z,99459.97
2022-10-05T10:54:03.275Z,99455.31
2022-10-05T10:56:54.554Z,99453.81
2022-10-05T10:59:54.709Z,99445.47
2022-10-05T11:02:59.506Z,99451.06
2022-10-05T11:05:32.180Z,99450.72
2022-10-05T11:08:34.340Z,99447.44
2022-10-05T11:11:19.201Z,99450.47
2022-10-05T11:14:04.493Z,99442.56
2022-10-05T11:16:55.678Z,99452.00
2022-10-05T11:20:02.885Z,99434.47
2022-10-05T11:22:52.553Z,99430.75
2022-10-05T11:25:22.265Z,99420.97
2022-10-05T11:28:15.210Z,99420.22
2022-10-05T11:30:59.729Z,99416.09
2022-10-05T11:33:32.174Z,99414.78
2022-10-05T11:36:25.914Z,99406.66
2022-10-05T11:39:11.097Z,99398.84
2022-10-05T11:41:52.710Z,99390.41
2022-10-05T11:44:57.575Z,99398.19
2022-10-05T11:47:54.035Z,99393.19
2022-10-05T11:50:33.082Z,99387.34
2022-10-05T11:53:37.615Z,99389.75
2022-10-05T11:56:08.035Z,99383.31
2022-10-05T11:58:56.083Z,99379.84
2022-10-05T12:02:10.741Z,99379.03
2022-10-05T12:04:40.435Z,99371.81
2022-10-05T12:07:20.280Z,99377.69
2022-10-05T12:10:11.245Z,99375.16
2022-10-05T12:12:49.932Z,99379.78
2022-10-05T12:15:26.757Z,99375.41
2022-10-05T12:18:08.338Z,99376.66
2022-10-05T12:20:45.988Z,99367.03
2022-10-05T12:23:34.338Z,99359.28
2022-10-05T12:26:16.658Z,99367.50
2022-10-05T12:29:07.805Z,99363.94
2022-10-05T12:31:47.029Z,99367.63
2022-10-05T12:35:07.650Z,99361.69
2022-10-05T12:37:54.187Z,99366.00
2022-10-05T12:40:40.961Z,99369.75
2022-10-05T12:43:39.653Z,99361.31
2022-10-05T12:46:24.934Z,99366.06
2022-10-05T12:49:13.763Z,99357.56
2022-10-05T12:51:58.053Z,99347.88
2022-10-05T12:54:35.486Z,99348.88
2022-10-05T12:57:30.579Z,99344.84
2022-10-05T13:00:13.312Z,99347.19
2022-10-05T13:02:59.634Z,99340.47
2022-10-05T13:06:08.154Z,99349.28
2022-10-05T13:08:54.363Z,99360.09
2022-10-05T13:11:40.778Z,99354.47
2022-10-05T13:14:54.152Z,99359.66
2022-10-05T13:17:35.096Z,99349.56
2022-10-05T13:20:16.170Z,99349.41
2022-10-05T13:23:07.107Z,99356.13
2022-10-05T13:26:11.189Z,99346.44
2022-10-05T13:28:51.068Z,99351.59
2022-10-05T13:31:42.536Z,99341.03
2022-10-05T13:34:38.709Z,99337.34
2022-10-05T13:37:26.454Z,99332.44
2022-10-05T13:40:16.504Z,99337.69
2022-10-05T13:43:08.890Z,99349.47
2022-10-05T13:45:42.251Z,99344.63
2022-10-05T13:48:26.983Z,99340.09
2022-10-05T13:51:04.533Z,99339.59
2022-10-05T13:53:39.545Z,99338.75
2022-10-05T13:56:40.361Z,99336.72
2022-10-05T13:59:08.153Z,99327.91
2022-10-05T14:01:42.200Z,99322.28
2022-10-05T14:04:18.891Z,99336.13
2022-10-05T14:06:49.358Z,99323.53
2022-10-05T14:09:22.309Z,99325.22
2022-10-05T14:11:51.747Z,99320.91
2022-10-05T14:14:30.449Z,99314.16
2022-10-05T14:16:59.572Z,99315.53
2022-10-05T14:19:42.225Z,99320.94
2022-10-05T14:22:22.566Z,99325.44
2022-10-05T14:25:11.545Z,99322.44
2022-10-05T14:27:49.920Z,99315.88
2022-10-05T14:30:25.787Z,99319.59
2022-10-05T14:32:58.601Z,99320.13
2022-10-05T14:35:43.607Z,99322.63
2022-10-05T14:38:32.577Z,99314.28
2022-10-05T14:41:08.321Z,99311.22
2022-10-05T14:43:37.901Z,99308.13
2022-10-05T14:46:17.103Z,99309.34
2022-10-05T14:48:46.479Z,99304.06
2022-10-05T14:51:25.846Z,99306.25
2022-10-05T14:54:14.915Z,99301.47
2022-10-05T14:57:02.397Z,99301.91
2022-10-05T14:59:55.260Z,99304.97
2022-10-05T15:02:45.123Z,99300.34
2022-10-05T15:05:26.816Z,99288.41
2022-10-05T15:08:01.507Z,99293.41
2022-10-05T15:10:45.672Z,99286.00
2022-10-05T15:13:16.287Z,99283.38
2022-10-05T15:15:54.977Z,99282.56
2022-10-05T15:18:37.370Z,99283.63
2022-10-05T15:21:34.101Z,99278.94
2022-10-05T15:24:09.333Z,99279.81
2022-10-05T15:26:52.833Z,99282.66
2022-10-05T15:29:31.861Z,99278.31
2022-10-05T15:32:23.033Z,99281.91
2022-10-05T15:34:59.107Z,99281.22
2022-10-05T15:37:32.021Z,99277.56
2022-10-05T15:40:03.739Z,99282.28
2022-10-05T15:42:43.059Z,99282.75
2022-10-05T15:45:30.053Z,99279.91
2022-10-05T15:48:03.173Z,99273.84
2022-10-05T15:50:55.965Z,99271.56
2022-10-05T15:53:34.102Z,99279.91
2022-10-05T15:56:27.035Z,99283.00
2022-10-05T15:59:13.089Z,99283.13
2022-10-05T16:02:01.435Z,99274.63
2022-10-05T16:04:34.731Z,99276.41
2022-10-05T16:07:22.030Z,99276.53
2022-10-05T16:10:04.009Z,99276.19
2022-10-05T16:12:50.347Z,99273.72
2022-10-05T16:15:33.642Z,99277.50
2022-10-05T16:18:09.158Z,99282.09
2022-10-05T16:20:57.020Z,99280.59
2022-10-05T16:23:36.436Z,99270.81
2022-10-05T16:26:38.663Z,99287.78
2022-10-05T16:29:25.339Z,99277.97
2022-10-05T16:32:16.280Z,99283.38
2022-10-05T16:35:17.225Z,99280.66
2022-10-05T16:38:13.801Z,99285.06
2022-10-05T16:41:13.144Z,99286.06
2022-10-05T16:44:20.986Z,99284.53
2022-10-05T16:47:04.953Z,99289.19
2022-10-05T16:50:12.432Z,99283.13
2022-10-05T16:52:45.384Z,99285.47
2022-10-05T16:55:21.076Z,99291.69
2022-10-05T16:57:55.763Z,99286.59
2022-10-05T17:00:23.835Z,99288.16
2022-10-05T17:02:53.513Z,99293.16
2022-10-05T17:05:41.159Z,99293.50
2022-10-05T17:08:30.501Z,99289.72
2022-10-05T17:11:12.255Z,99293.84
2022-10-05T17:14:13.888Z,99296.16
2022-10-05T17:17:02.540Z,99296.47
2022-10-05T17:20:17.551Z,99300.78
2022-10-05T17:23:23.505Z,99291.56
2022-10-05T17:25:55.838Z,99297.25
2022-10-05T17:28:42.447Z,99300.25
2022-10-05T17:31:17.350Z,99296.13
2022-10-05T17:33:59.708Z,99298.28
2022-10-05T17:36:51.363Z,99299.72
2022-10-05T17:39:21.012Z,99285.47
2022-10-05T17:41:48.408Z,99297.19
2022-10-05T17:44:21.304Z,99292.72
2022-10-05T17:46:59.317Z,99282.56
2022-10-05T17:49:38.219Z,99276.31
2022-10-05T17:52:45.767Z,99287.72
2022-10-05T17:55:34.432Z,99284.34
2022-10-05T17:58:24.475Z,99280.50
2022-10-05T18:01:12.933Z,99284.47
2022-10-05T18:03:48.986Z,99285.00
2022-10-05T18:06:37.378Z,99284.38
2022-10-05T18:09:22.494Z,99285.75
2022-10-05T18:12:24.573Z,99285.03
2022-10-05T18:15:22.351Z,99294.94
2022-10-05T18:17:59.550Z,99291.72
2022-10-05T18:20:32.270Z,99295.47
2022-10-05T18:23:09.395Z,99295.03
2022-10-05T18:25:45.392Z,99288.97
2022-10-05T18:28:26.039Z,99300.78
2022-10-05T18:31:11.453Z,99298.97
2022-10-05T18:33:56.161Z,99298.63
2022-10-05T18:36:51.541Z,99296.69
2022-10-05T18:39:29.884Z,99297.13
2022-10-05T18:42:02.572Z,99299.31
2022-10-05T18:44:33.079Z,99304.31
2022-10-05T18:47:09.042Z,99294.25
2022-10-05T18:49:49.164Z,99294.47
2022-10-05T18:52:18.853Z,99292.75
2022-10-05T18:54:48.327Z,99288.59
2022-10-05T18:57:36.157Z,99285.47
2022-10-05T19:00:17.005Z,99288.09
2022-10-05T19:02:53.472Z,99278.53
2022-10-05T19:05:52.736Z,99267.53
2022-10-05T19:08:41.107Z,99267.84
2022-10-05T19:11:33.227Z,99283.13
2022-10-05T19:14:24.428Z,99283.31
2022-10-05T19:17:24.922Z,99287.03
2022-10-05T19:20:17.316Z,99286.38
2022-10-05T19:23:05.281Z,99291.97
2022-10-05T19:26:10.035Z,99291.53
2022-10-05T19:29:11.552Z,99296.19
2022-10-05T19:32:23.561Z,99302.72
2022-10-05T19:35:12.076Z,99290.78
2022-10-05T19:38:09.646Z,99301.63
2022-10-05T19:40:45.829Z,99300.00
2022-10-05T19:43:30.860Z,99306.44
2022-10-05T19:46:19.355Z,99305.84
2022-10-05T19:48:53.512Z,99317.44
2022-10-05T19:51:31.052Z,99322.94
2022-10-05T19:54:02.344Z,99318.03
2022-10-05T19:56:33.570Z,99314.59
2022-10-05T19:59:18.958Z,99320.56
2022-10-05T20:01:54.438Z,99320.84
2022-10-05T20:04:37.936Z,99323.94
2022-10-05T20:07:05.069Z,99306.94
2022-10-05T20:09:53.860Z,99295.91
2022-10-05T20:12:23.149Z,99306.31
2022-10-05T20:15:25.303Z,99301.75
2022-10-05T20:18:10.741Z,99294.72
2022-10-05T20:20:45.783Z,99292.00
2022-10-05T20:23:23.781Z,99284.69
2022-10-05T20:26:10.089Z,99282.69
2022-10-05T20:28:37.452Z,99294.19
2022-10-05T20:31:07.786Z,99285.84
2022-10-05T20:33:35.238Z,99297.66
2022-10-05T20:36:03.733Z,99290.63
2022-10-05T20:38:31.770Z,99297.09
2022-10-05T20:40:58.700Z,99281.06
2022-10-05T20:43:25.461Z,99285.44
2022-10-05T20:45:53.865Z,99289.88
2022-10-05T20:48:20.740Z,99305.66
2022-10-05T20:50:47.669Z,99302.94
2022-10-05T20:53:14.482Z,99308.69
2022-10-05T20:55:41.357Z,99306.38
2022-10-05T20:58:09.108Z,99316.56
2022-10-05T21:01:08.382Z,99318.78
2022-10-05T21:03:35.178Z,99326.25
2022-10-05T21:06:02.041Z,99328.38
2022-10-05T21:08:29.095Z,99327.84
2022-10-05T21:10:56.068Z,99328.19
2022-10-05T21:13:22.803Z,99327.50
2022-10-05T21:15:49.496Z,99332.97
2022-10-05T21:18:17.171Z,99325.19
2022-10-05T21:20:50.616Z,99332.63
2022-10-05T21:23:17.359Z,99313.31
2022-10-05T21:25:44.041Z,99313.19
2022-10-05T21:28:10.755Z,99316.72
2022-10-05T21:30:37.757Z,99323.91
2022-10-05T21:33:04.760Z,99317.81
2022-10-05T21:35:31.611Z,99309.81
2022-10-05T21:37:58.324Z,99309.88
2022-10-05T21:40:25.001Z,99304.72
2022-10-05T21:42:51.756Z,99313.00
2022-10-05T21:45:18.506Z,99312.38
2022-10-05T21:47:45.188Z,99308.88
2022-10-05T21:50:11.883Z,99317.84
2022-10-05T21:52:38.749Z,99314.59
2022-10-05T21:55:06.394Z,99320.91
2022-10-05T21:57:34.735Z,99319.34
2022-10-05T22:00:01.560Z,99322.41
2022-10-05T22:02:33.162Z,99321.63
2022-10-05T22:04:59.875Z,99320.00
2022-10-05T22:07:26.728Z,99316.41
2022-10-05T22:09:53.424Z,99309.94
2022-10-05T22:12:20.989Z,99314.22
2022-10-05T22:14:48.238Z,99320.78
2022-10-05T22:17:19.853Z,99327.31
2022-10-05T22:19:46.740Z,99335.66
2022-10-05T22:22:13.413Z,99316.19
2022-10-05T22:24:40.135Z,99335.50
2022-10-05T22:27:07.033Z,99345.47
2022-10-05T22:29:33.840Z,99342.97
2022-10-05T22:32:00.556Z,99341.50
2022-10-05T22:34:27.284Z,99331.09
2022-10-05T22:36:54.243Z,99320.88
2022-10-05T22:39:20.950Z,99316.03
2022-10-05T22:41:47.876Z,99314.19
2022-10-05T22:44:15.172Z,99317.84
2022-10-05T22:46:41.925Z,99324.53
2022-10-05T22:49:08.718Z,99339.09
2022-10-05T22:51:35.429Z,99340.47
2022-10-05T22:54:02.181Z,99329.88
2022-10-05T22:56:29.203Z,99332.63
2022-10-05T22:58:55.953Z,99321.25
2022-10-05T23:01:22.759Z,99301.19
2022-10-05T23:03:49.465Z,99295.50
2022-10-05T23:06:19.643Z,99300.56
2022-10-05T23:08:46.595Z,99300.56
2022-10-05T23:11:14.661Z,99299.88
2022-10-05T23:13:41.393Z,99302.03
2022-10-05T23:16:16.115Z,99301.41
2022-10-05T23:18:43.617Z,99300.94
2022-10-05T23:21:11.394Z,99304.59
2022-10-05T23:23:40.056Z,99306.72
2022-10-05T23:26:09.122Z,99293.91
2022-10-05T23:28:35.849Z,99304.38
2022-10-05T23:31:05.579Z,99303.22
2022-10-05T23:33:33.169Z,99305.22
2022-10-05T23:36:19.764Z,99307.16
2022-10-05T23:38:46.944Z,99306.28
2022-10-05T23:41:13.770Z,99311.75
2022-10-05T23:43:40.568Z,99311.75
2022-10-05T23:46:08.089Z,99308.25
2022-10-05T23:48:38.079Z,99308.41
2022-10-05T23:51:06.499Z,99312.84
2022-10-05T23:53:33.573Z,99306.75
2022-10-05T23:56:00.481Z,99309.56
2022-10-05T23:58:27.447Z,99310.63
